sensor_id;sensor_type;location;lat;lon;timestamp;temperature;humidity
15535;DHT22;7869;49.264;8.596;2023-01-23T00:00:46;1.20;99.90
15535;DHT22;7869;49.264;8.596;2023-01-23T00:03:11;1.20;99.90
15535;DHT22;7869;49.264;8.596;2023-01-23T00:05:37;1.10;99.90
15535;DHT22;7869;49.264;8.596;2023-01-23T00:08:02;1.10;99.90
15535;DHT22;7869;49.264;8.596;2023-01-23T00:10:28;1.10;99.90
15535;DHT22;7869;49.264;8.596;2023-01-23T00:12:54;1.00;99.90
15535;DHT22;7869;49.264;8.596;2023-01-23T00:15:20;1.00;99.90
15535;DHT22;7869;49.264;8.596;2023-01-23T00:17:45;1.00;99.90
15535;DHT22;7869;49.264;8.596;2023-01-23T00:20:12;1.00;99.90
15535;DHT22;7869;49.264;8.596;2023-01-23T00:22:38;1.00;99.90
15535;DHT22;7869;49.264;8.596;2023-01-23T00:25:03;1.10;99.90
15535;DHT22;7869;49.264;8.596;2023-01-23T00:27:29;1.10;99.90
15535;DHT22;7869;49.264;8.596;2023-01-23T00:29:55;1.00;99.90
15535;DHT22;7869;49.264;8.596;2023-01-23T00:32:20;1.10;99.90
15535;DHT22;7869;49.264;8.596;2023-01-23T00:34:46;1.00;99.90
15535;DHT22;7869;49.264;8.596;2023-01-23T00:37:12;1.00;99.90
15535;DHT22;7869;49.264;8.596;2023-01-23T00:39:39;1.00;99.90
15535;DHT22;7869;49.264;8.596;2023-01-23T00:42:05;1.00;99.90
15535;DHT22;7869;49.264;8.596;2023-01-23T00:44:31;1.00;99.90
15535;DHT22;7869;49.264;8.596;2023-01-23T00:46:57;1.00;99.90
15535;DHT22;7869;49.264;8.596;2023-01-23T00:49:23;1.00;99.90
15535;DHT22;7869;49.264;8.596;2023-01-23T00:51:49;1.10;99.90
15535;DHT22;7869;49.264;8.596;2023-01-23T00:54:15;1.10;99.90
15535;DHT22;7869;49.264;8.596;2023-01-23T00:56:41;1.10;99.90
15535;DHT22;7869;49.264;8.596;2023-01-23T00:59:07;1.10;99.90
15535;DHT22;7869;49.264;8.596;2023-01-23T01:01:32;1.00;99.90
15535;DHT22;7869;49.264;8.596;2023-01-23T01:03:58;1.00;99.90
15535;DHT22;7869;49.264;8.596;2023-01-23T01:06:24;1.00;99.90
15535;DHT22;7869;49.264;8.596;2023-01-23T01:08:50;1.00;99.90
15535;DHT22;7869;49.264;8.596;2023-01-23T01:11:16;1.00;99.90
15535;DHT22;7869;49.264;8.596;2023-01-23T01:13:43;1.00;99.90
15535;DHT22;7869;49.264;8.596;2023-01-23T01:16:09;1.00;99.90
15535;DHT22;7869;49.264;8.596;2023-01-23T01:18:35;1.00;99.90
15535;DHT22;7869;49.264;8.596;2023-01-23T01:21:04;1.00;99.90
15535;DHT22;7869;49.264;8.596;2023-01-23T01:23:29;1.00;99.90
15535;DHT22;7869;49.264;8.596;2023-01-23T01:25:58;1.00;99.90
15535;DHT22;7869;49.264;8.596;2023-01-23T01:28:24;1.00;99.90
15535;DHT22;7869;49.264;8.596;2023-01-23T01:30:51;1.00;99.90
15535;DHT22;7869;49.264;8.596;2023-01-23T01:33:17;1.00;99.90
15535;DHT22;7869;49.264;8.596;2023-01-23T01:35:42;1.00;99.90
15535;DHT22;7869;49.264;8.596;2023-01-23T01:38:08;1.00;99.90
15535;DHT22;7869;49.264;8.596;2023-01-23T01:40:35;0.90;99.90
15535;DHT22;7869;49.264;8.596;2023-01-23T01:43:05;0.80;99.90
15535;DHT22;7869;49.264;8.596;2023-01-23T01:46:03;0.80;99.90
15535;DHT22;7869;49.264;8.596;2023-01-23T01:48:40;0.70;99.90
15535;DHT22;7869;49.264;8.596;2023-01-23T01:54:04;0.60;99.90
15535;DHT22;7869;49.264;8.596;2023-01-23T01:56:36;0.50;99.90
15535;DHT22;7869;49.264;8.596;2023-01-23T01:59:03;0.50;99.90
15535;DHT22;7869;49.264;8.596;2023-01-23T02:01:29;0.50;99.90
15535;DHT22;7869;49.264;8.596;2023-01-23T02:03:56;0.50;99.90
15535;DHT22;7869;49.264;8.596;2023-01-23T02:06:22;0.50;99.90
15535;DHT22;7869;49.264;8.596;2023-01-23T02:08:56;0.50;99.90
15535;DHT22;7869;49.264;8.596;2023-01-23T02:11:23;0.50;99.90
15535;DHT22;7869;49.264;8.596;2023-01-23T02:13:49;0.50;99.90
15535;DHT22;7869;49.264;8.596;2023-01-23T02:16:20;0.60;99.90
15535;DHT22;7869;49.264;8.596;2023-01-23T02:18:48;0.60;99.90
15535;DHT22;7869;49.264;8.596;2023-01-23T02:21:20;0.60;99.90
15535;DHT22;7869;49.264;8.596;2023-01-23T02:26:41;0.60;99.90
15535;DHT22;7869;49.264;8.596;2023-01-23T02:29:09;0.60;99.90
15535;DHT22;7869;49.264;8.596;2023-01-23T02:31:37;0.70;99.90
15535;DHT22;7869;49.264;8.596;2023-01-23T02:34:04;0.60;99.90
15535;DHT22;7869;49.264;8.596;2023-01-23T02:36:34;0.60;99.90
15535;DHT22;7869;49.264;8.596;2023-01-23T02:39:12;0.70;99.90
15535;DHT22;7869;49.264;8.596;2023-01-23T02:41:44;0.70;99.90
15535;DHT22;7869;49.264;8.596;2023-01-23T02:44:36;0.70;99.90
15535;DHT22;7869;49.264;8.596;2023-01-23T02:47:04;0.70;99.90
15535;DHT22;7869;49.264;8.596;2023-01-23T02:49:32;0.70;99.90
15535;DHT22;7869;49.264;8.596;2023-01-23T02:51:58;0.70;99.90
15535;DHT22;7869;49.264;8.596;2023-01-23T02:54:24;0.80;99.90
15535;DHT22;7869;49.264;8.596;2023-01-23T02:56:50;0.80;99.90
15535;DHT22;7869;49.264;8.596;2023-01-23T02:59:16;0.80;99.90
15535;DHT22;7869;49.264;8.596;2023-01-23T03:02:00;0.80;99.90
15535;DHT22;7869;49.264;8.596;2023-01-23T03:04:26;0.80;99.90
15535;DHT22;7869;49.264;8.596;2023-01-23T03:06:52;0.80;99.90
15535;DHT22;7869;49.264;8.596;2023-01-23T03:09:18;0.90;99.90
15535;DHT22;7869;49.264;8.596;2023-01-23T03:11:44;0.80;99.90
15535;DHT22;7869;49.264;8.596;2023-01-23T03:14:12;0.80;99.90
15535;DHT22;7869;49.264;8.596;2023-01-23T03:16:38;0.80;99.90
15535;DHT22;7869;49.264;8.596;2023-01-23T03:19:06;0.80;99.90
15535;DHT22;7869;49.264;8.596;2023-01-23T03:21:35;0.80;99.90
15535;DHT22;7869;49.264;8.596;2023-01-23T03:24:04;0.80;99.90
15535;DHT22;7869;49.264;8.596;2023-01-23T03:26:30;0.80;99.90
15535;DHT22;7869;49.264;8.596;2023-01-23T03:28:56;0.80;99.90
15535;DHT22;7869;49.264;8.596;2023-01-23T03:31:40;0.80;99.90
15535;DHT22;7869;49.264;8.596;2023-01-23T03:34:07;0.80;99.90
15535;DHT22;7869;49.264;8.596;2023-01-23T03:36:33;0.70;99.90
15535;DHT22;7869;49.264;8.596;2023-01-23T03:39:05;0.70;99.90
15535;DHT22;7869;49.264;8.596;2023-01-23T03:41:51;0.80;99.90
15535;DHT22;7869;49.264;8.596;2023-01-23T03:44:17;0.80;99.90
15535;DHT22;7869;49.264;8.596;2023-01-23T03:46:44;0.80;99.90
15535;DHT22;7869;49.264;8.596;2023-01-23T03:49:10;0.90;99.90
15535;DHT22;7869;49.264;8.596;2023-01-23T03:51:35;0.80;99.90
15535;DHT22;7869;49.264;8.596;2023-01-23T03:54:01;0.80;99.90
15535;DHT22;7869;49.264;8.596;2023-01-23T03:56:26;0.90;99.90
15535;DHT22;7869;49.264;8.596;2023-01-23T03:58:52;0.90;99.90
15535;DHT22;7869;49.264;8.596;2023-01-23T04:01:18;0.80;99.90
15535;DHT22;7869;49.264;8.596;2023-01-23T04:03:43;0.80;99.90
15535;DHT22;7869;49.264;8.596;2023-01-23T04:06:10;0.80;99.90
15535;DHT22;7869;49.264;8.596;2023-01-23T04:08:35;0.90;99.90
15535;DHT22;7869;49.264;8.596;2023-01-23T04:11:06;0.90;99.90
15535;DHT22;7869;49.264;8.596;2023-01-23T04:13:31;0.90;99.90
15535;DHT22;7869;49.264;8.596;2023-01-23T04:15:58;0.90;99.90
15535;DHT22;7869;49.264;8.596;2023-01-23T04:18:23;0.90;99.90
15535;DHT22;7869;49.264;8.596;2023-01-23T04:20:49;1.00;99.90
15535;DHT22;7869;49.264;8.596;2023-01-23T04:23:15;1.00;99.90
15535;DHT22;7869;49.264;8.596;2023-01-23T04:25:40;1.00;99.90
15535;DHT22;7869;49.264;8.596;2023-01-23T04:28:06;1.00;99.90
15535;DHT22;7869;49.264;8.596;2023-01-23T04:30:31;1.00;99.90
15535;DHT22;7869;49.264;8.596;2023-01-23T04:32:57;1.10;99.90
15535;DHT22;7869;49.264;8.596;2023-01-23T04:35:22;1.20;99.90
15535;DHT22;7869;49.264;8.596;2023-01-23T04:37:48;1.20;99.90
15535;DHT22;7869;49.264;8.596;2023-01-23T04:40:14;1.20;99.90
15535;DHT22;7869;49.264;8.596;2023-01-23T04:42:39;1.20;99.90
15535;DHT22;7869;49.264;8.596;2023-01-23T04:45:06;1.20;99.90
15535;DHT22;7869;49.264;8.596;2023-01-23T04:47:32;1.30;99.90
15535;DHT22;7869;49.264;8.596;2023-01-23T04:49:57;1.30;99.90
15535;DHT22;7869;49.264;8.596;2023-01-23T04:52:23;1.40;99.90
15535;DHT22;7869;49.264;8.596;2023-01-23T04:54:48;1.40;99.90
15535;DHT22;7869;49.264;8.596;2023-01-23T04:57:14;1.40;99.90
15535;DHT22;7869;49.264;8.596;2023-01-23T04:59:39;1.40;99.90
15535;DHT22;7869;49.264;8.596;2023-01-23T05:02:05;1.40;99.90
15535;DHT22;7869;49.264;8.596;2023-01-23T05:04:30;1.40;99.90
15535;DHT22;7869;49.264;8.596;2023-01-23T05:06:56;1.50;99.90
15535;DHT22;7869;49.264;8.596;2023-01-23T05:09:22;1.40;99.90
15535;DHT22;7869;49.264;8.596;2023-01-23T05:11:47;1.50;99.90
15535;DHT22;7869;49.264;8.596;2023-01-23T05:14:13;1.50;99.90
15535;DHT22;7869;49.264;8.596;2023-01-23T05:16:38;1.50;99.90
15535;DHT22;7869;49.264;8.596;2023-01-23T05:19:04;1.50;99.90
15535;DHT22;7869;49.264;8.596;2023-01-23T05:21:29;1.50;99.90
15535;DHT22;7869;49.264;8.596;2023-01-23T05:23:55;1.50;99.90
15535;DHT22;7869;49.264;8.596;2023-01-23T05:26:20;1.50;99.90
15535;DHT22;7869;49.264;8.596;2023-01-23T05:28:46;1.50;99.90
15535;DHT22;7869;49.264;8.596;2023-01-23T05:31:12;1.50;99.90
15535;DHT22;7869;49.264;8.596;2023-01-23T05:33:37;1.50;99.90
15535;DHT22;7869;49.264;8.596;2023-01-23T05:36:05;1.50;99.90
15535;DHT22;7869;49.264;8.596;2023-01-23T05:38:30;1.50;99.90
15535;DHT22;7869;49.264;8.596;2023-01-23T05:40:56;1.50;99.90
15535;DHT22;7869;49.264;8.596;2023-01-23T05:43:22;1.60;99.90
15535;DHT22;7869;49.264;8.596;2023-01-23T05:45:47;1.60;99.90
15535;DHT22;7869;49.264;8.596;2023-01-23T05:48:13;1.60;99.90
15535;DHT22;7869;49.264;8.596;2023-01-23T05:50:39;1.60;99.90
15535;DHT22;7869;49.264;8.596;2023-01-23T05:53:05;1.60;99.90
15535;DHT22;7869;49.264;8.596;2023-01-23T05:55:31;1.50;99.90
15535;DHT22;7869;49.264;8.596;2023-01-23T05:57:56;1.60;99.90
15535;DHT22;7869;49.264;8.596;2023-01-23T06:00:22;1.60;99.90
15535;DHT22;7869;49.264;8.596;2023-01-23T06:02:48;1.60;99.90
15535;DHT22;7869;49.264;8.596;2023-01-23T06:05:13;1.60;99.90
15535;DHT22;7869;49.264;8.596;2023-01-23T06:07:39;1.60;99.90
15535;DHT22;7869;49.264;8.596;2023-01-23T06:10:05;1.70;99.90
15535;DHT22;7869;49.264;8.596;2023-01-23T06:12:31;1.60;99.90
15535;DHT22;7869;49.264;8.596;2023-01-23T06:14:56;1.50;99.90
15535;DHT22;7869;49.264;8.596;2023-01-23T06:17:22;1.30;99.90
15535;DHT22;7869;49.264;8.596;2023-01-23T06:19:48;1.20;99.90
15535;DHT22;7869;49.264;8.596;2023-01-23T06:22:13;1.10;99.90
15535;DHT22;7869;49.264;8.596;2023-01-23T06:24:39;1.10;99.90
15535;DHT22;7869;49.264;8.596;2023-01-23T06:27:05;1.00;99.90
15535;DHT22;7869;49.264;8.596;2023-01-23T06:29:36;1.00;99.90
15535;DHT22;7869;49.264;8.596;2023-01-23T06:32:02;0.90;99.90
15535;DHT22;7869;49.264;8.596;2023-01-23T06:34:28;0.90;99.90
15535;DHT22;7869;49.264;8.596;2023-01-23T06:36:54;0.90;99.90
15535;DHT22;7869;49.264;8.596;2023-01-23T06:39:19;0.80;99.90
15535;DHT22;7869;49.264;8.596;2023-01-23T06:41:45;0.80;99.90
15535;DHT22;7869;49.264;8.596;2023-01-23T06:44:11;0.70;99.90
15535;DHT22;7869;49.264;8.596;2023-01-23T06:46:37;0.70;99.90
15535;DHT22;7869;49.264;8.596;2023-01-23T06:49:03;0.70;99.90
15535;DHT22;7869;49.264;8.596;2023-01-23T06:51:29;0.60;99.90
15535;DHT22;7869;49.264;8.596;2023-01-23T06:53:55;0.60;99.90
15535;DHT22;7869;49.264;8.596;2023-01-23T06:56:21;0.60;99.90
15535;DHT22;7869;49.264;8.596;2023-01-23T06:58:46;0.50;99.90
15535;DHT22;7869;49.264;8.596;2023-01-23T07:01:15;0.50;99.90
15535;DHT22;7869;49.264;8.596;2023-01-23T07:03:44;0.40;99.90
15535;DHT22;7869;49.264;8.596;2023-01-23T07:06:14;0.40;99.90
15535;DHT22;7869;49.264;8.596;2023-01-23T07:08:40;0.40;99.90
15535;DHT22;7869;49.264;8.596;2023-01-23T07:11:06;0.40;99.90
15535;DHT22;7869;49.264;8.596;2023-01-23T07:13:33;0.40;99.90
15535;DHT22;7869;49.264;8.596;2023-01-23T07:15:58;0.40;99.90
15535;DHT22;7869;49.264;8.596;2023-01-23T07:18:24;0.50;99.90
15535;DHT22;7869;49.264;8.596;2023-01-23T07:20:52;0.50;99.90
15535;DHT22;7869;49.264;8.596;2023-01-23T07:23:20;0.50;99.90
15535;DHT22;7869;49.264;8.596;2023-01-23T07:25:45;0.60;99.90
15535;DHT22;7869;49.264;8.596;2023-01-23T07:28:11;0.60;99.90
15535;DHT22;7869;49.264;8.596;2023-01-23T07:30:37;0.70;99.90
15535;DHT22;7869;49.264;8.596;2023-01-23T07:33:03;0.70;99.90
15535;DHT22;7869;49.264;8.596;2023-01-23T07:35:28;0.80;99.90
15535;DHT22;7869;49.264;8.596;2023-01-23T07:37:55;0.80;99.90
15535;DHT22;7869;49.264;8.596;2023-01-23T07:40:20;0.90;99.90
15535;DHT22;7869;49.264;8.596;2023-01-23T07:42:46;0.90;99.90
15535;DHT22;7869;49.264;8.596;2023-01-23T07:45:12;1.00;99.90
15535;DHT22;7869;49.264;8.596;2023-01-23T07:47:38;1.00;99.90
15535;DHT22;7869;49.264;8.596;2023-01-23T07:50:10;1.00;99.90
15535;DHT22;7869;49.264;8.596;2023-01-23T07:52:36;1.10;99.90
15535;DHT22;7869;49.264;8.596;2023-01-23T07:55:02;1.20;99.90
15535;DHT22;7869;49.264;8.596;2023-01-23T07:57:28;1.30;99.90
15535;DHT22;7869;49.264;8.596;2023-01-23T07:59:54;1.30;99.90
15535;DHT22;7869;49.264;8.596;2023-01-23T08:02:19;1.40;99.90
15535;DHT22;7869;49.264;8.596;2023-01-23T08:04:45;1.40;99.90
15535;DHT22;7869;49.264;8.596;2023-01-23T08:07:10;1.40;99.90
15535;DHT22;7869;49.264;8.596;2023-01-23T08:09:36;1.50;99.90
15535;DHT22;7869;49.264;8.596;2023-01-23T08:12:03;1.60;99.90
15535;DHT22;7869;49.264;8.596;2023-01-23T08:14:28;1.60;99.90
15535;DHT22;7869;49.264;8.596;2023-01-23T08:16:54;1.60;99.90
15535;DHT22;7869;49.264;8.596;2023-01-23T08:19:20;1.70;99.90
15535;DHT22;7869;49.264;8.596;2023-01-23T08:21:45;1.80;99.90
15535;DHT22;7869;49.264;8.596;2023-01-23T08:24:12;1.80;99.90
15535;DHT22;7869;49.264;8.596;2023-01-23T08:26:38;1.90;99.90
15535;DHT22;7869;49.264;8.596;2023-01-23T08:29:03;2.00;99.90
15535;DHT22;7869;49.264;8.596;2023-01-23T08:31:29;2.10;99.90
15535;DHT22;7869;49.264;8.596;2023-01-23T08:33:55;2.20;99.90
15535;DHT22;7869;49.264;8.596;2023-01-23T08:36:21;2.30;99.90
15535;DHT22;7869;49.264;8.596;2023-01-23T08:38:47;2.40;99.90
15535;DHT22;7869;49.264;8.596;2023-01-23T08:41:13;2.40;99.90
15535;DHT22;7869;49.264;8.596;2023-01-23T08:43:39;2.50;99.90
15535;DHT22;7869;49.264;8.596;2023-01-23T08:46:06;2.50;99.90
15535;DHT22;7869;49.264;8.596;2023-01-23T08:48:32;2.60;99.90
15535;DHT22;7869;49.264;8.596;2023-01-23T08:51:02;2.60;99.90
15535;DHT22;7869;49.264;8.596;2023-01-23T08:53:29;2.70;99.90
15535;DHT22;7869;49.264;8.596;2023-01-23T08:56:03;2.70;99.90
15535;DHT22;7869;49.264;8.596;2023-01-23T08:58:29;2.70;99.90
15535;DHT22;7869;49.264;8.596;2023-01-23T09:00:54;2.70;99.90
15535;DHT22;7869;49.264;8.596;2023-01-23T09:03:20;2.70;99.90
15535;DHT22;7869;49.264;8.596;2023-01-23T09:05:46;2.70;99.90
15535;DHT22;7869;49.264;8.596;2023-01-23T09:08:12;2.70;99.90
15535;DHT22;7869;49.264;8.596;2023-01-23T09:10:37;2.70;99.90
15535;DHT22;7869;49.264;8.596;2023-01-23T09:13:03;2.70;99.90
15535;DHT22;7869;49.264;8.596;2023-01-23T09:15:29;2.70;99.90
15535;DHT22;7869;49.264;8.596;2023-01-23T09:17:55;2.80;99.90
15535;DHT22;7869;49.264;8.596;2023-01-23T09:20:20;2.80;99.90
15535;DHT22;7869;49.264;8.596;2023-01-23T09:22:46;2.80;99.90
15535;DHT22;7869;49.264;8.596;2023-01-23T09:25:12;2.80;99.90
15535;DHT22;7869;49.264;8.596;2023-01-23T09:27:38;2.80;99.90
15535;DHT22;7869;49.264;8.596;2023-01-23T09:30:04;2.80;99.90
15535;DHT22;7869;49.264;8.596;2023-01-23T09:32:30;2.80;99.90
15535;DHT22;7869;49.264;8.596;2023-01-23T09:34:56;2.70;99.90
15535;DHT22;7869;49.264;8.596;2023-01-23T09:37:21;2.70;99.90
15535;DHT22;7869;49.264;8.596;2023-01-23T09:39:47;2.60;99.90
15535;DHT22;7869;49.264;8.596;2023-01-23T09:42:17;2.70;99.90
15535;DHT22;7869;49.264;8.596;2023-01-23T09:44:56;2.70;99.90
15535;DHT22;7869;49.264;8.596;2023-01-23T09:47:31;2.70;99.90
15535;DHT22;7869;49.264;8.596;2023-01-23T09:50:09;2.60;99.90
15535;DHT22;7869;49.264;8.596;2023-01-23T09:52:43;2.70;99.90
15535;DHT22;7869;49.264;8.596;2023-01-23T10:00:17;2.80;99.90
15535;DHT22;7869;49.264;8.596;2023-01-23T10:02:45;2.80;99.90
15535;DHT22;7869;49.264;8.596;2023-01-23T10:05:16;2.80;99.90
15535;DHT22;7869;49.264;8.596;2023-01-23T10:21:45;2.80;99.90
15535;DHT22;7869;49.264;8.596;2023-01-23T10:29:51;2.80;99.90
15535;DHT22;7869;49.264;8.596;2023-01-23T10:32:26;2.80;99.90
15535;DHT22;7869;49.264;8.596;2023-01-23T10:42:29;2.90;99.90
15535;DHT22;7869;49.264;8.596;2023-01-23T10:44:55;3.00;99.90
15535;DHT22;7869;49.264;8.596;2023-01-23T10:47:51;3.00;99.90
15535;DHT22;7869;49.264;8.596;2023-01-23T10:50:33;3.00;99.90
15535;DHT22;7869;49.264;8.596;2023-01-23T10:53:07;3.00;99.90
15535;DHT22;7869;49.264;8.596;2023-01-23T10:55:44;3.10;99.90
15535;DHT22;7869;49.264;8.596;2023-01-23T11:00:55;3.10;99.90
15535;DHT22;7869;49.264;8.596;2023-01-23T11:05:52;3.10;99.90
15535;DHT22;7869;49.264;8.596;2023-01-23T11:08:29;3.10;99.90
15535;DHT22;7869;49.264;8.596;2023-01-23T11:11:17;3.10;99.90
15535;DHT22;7869;49.264;8.596;2023-01-23T11:13:45;3.10;99.90
15535;DHT22;7869;49.264;8.596;2023-01-23T11:16:19;3.10;99.90
15535;DHT22;7869;49.264;8.596;2023-01-23T11:18:54;3.10;99.90
15535;DHT22;7869;49.264;8.596;2023-01-23T11:22:20;3.10;99.90
15535;DHT22;7869;49.264;8.596;2023-01-23T11:24:08;3.10;99.90
15535;DHT22;7869;49.264;8.596;2023-01-23T11:26:35;3.20;99.90
15535;DHT22;7869;49.264;8.596;2023-01-23T11:29:07;3.20;99.90
15535;DHT22;7869;49.264;8.596;2023-01-23T11:31:43;3.20;99.90
15535;DHT22;7869;49.264;8.596;2023-01-23T11:34:12;3.10;99.90
15535;DHT22;7869;49.264;8.596;2023-01-23T11:39:48;3.10;99.90
15535;DHT22;7869;49.264;8.596;2023-01-23T11:42:15;3.20;99.90
15535;DHT22;7869;49.264;8.596;2023-01-23T11:44:41;3.30;99.90
15535;DHT22;7869;49.264;8.596;2023-01-23T11:47:33;3.40;99.90
15535;DHT22;7869;49.264;8.596;2023-01-23T11:50:27;3.50;99.90
15535;DHT22;7869;49.264;8.596;2023-01-23T12:09:19;3.50;99.90
15535;DHT22;7869;49.264;8.596;2023-01-23T12:12:14;3.50;99.90
15535;DHT22;7869;49.264;8.596;2023-01-23T12:17:41;3.50;99.90
15535;DHT22;7869;49.264;8.596;2023-01-23T12:20:36;3.50;99.90
15535;DHT22;7869;49.264;8.596;2023-01-23T12:23:19;3.40;99.90
15535;DHT22;7869;49.264;8.596;2023-01-23T12:26:17;3.40;99.90
15535;DHT22;7869;49.264;8.596;2023-01-23T12:31:55;3.40;99.90
15535;DHT22;7869;49.264;8.596;2023-01-23T12:34:50;3.50;99.90
15535;DHT22;7869;49.264;8.596;2023-01-23T12:37:42;3.60;99.90
15535;DHT22;7869;49.264;8.596;2023-01-23T12:40:14;3.60;99.90
15535;DHT22;7869;49.264;8.596;2023-01-23T12:42:49;3.70;99.90
15535;DHT22;7869;49.264;8.596;2023-01-23T12:45:25;3.70;99.90
15535;DHT22;7869;49.264;8.596;2023-01-23T12:48:11;3.70;99.90
15535;DHT22;7869;49.264;8.596;2023-01-23T12:50:49;3.80;99.90
15535;DHT22;7869;49.264;8.596;2023-01-23T12:53:17;3.80;99.90
15535;DHT22;7869;49.264;8.596;2023-01-23T12:58:16;3.80;99.90
15535;DHT22;7869;49.264;8.596;2023-01-23T13:00:48;3.80;99.90
15535;DHT22;7869;49.264;8.596;2023-01-23T13:03:32;3.80;99.90
15535;DHT22;7869;49.264;8.596;2023-01-23T13:14:01;3.90;99.90
15535;DHT22;7869;49.264;8.596;2023-01-23T13:16:45;3.80;99.90
15535;DHT22;7869;49.264;8.596;2023-01-23T13:19:27;3.80;99.90
15535;DHT22;7869;49.264;8.596;2023-01-23T13:22:24;3.80;99.90
15535;DHT22;7869;49.264;8.596;2023-01-23T13:27:56;3.80;99.90
15535;DHT22;7869;49.264;8.596;2023-01-23T13:33:19;3.70;99.90
15535;DHT22;7869;49.264;8.596;2023-01-23T13:43:53;3.70;99.90
15535;DHT22;7869;49.264;8.596;2023-01-23T13:52:27;3.80;99.90
15535;DHT22;7869;49.264;8.596;2023-01-23T13:55:29;3.90;99.90
15535;DHT22;7869;49.264;8.596;2023-01-23T13:58:21;3.90;99.90
15535;DHT22;7869;49.264;8.596;2023-01-23T14:00:56;3.90;99.90
15535;DHT22;7869;49.264;8.596;2023-01-23T14:03:48;3.90;99.90
15535;DHT22;7869;49.264;8.596;2023-01-23T14:06:38;3.90;99.90
15535;DHT22;7869;49.264;8.596;2023-01-23T14:09:24;3.90;99.90
15535;DHT22;7869;49.264;8.596;2023-01-23T14:12:01;3.80;99.90
15535;DHT22;7869;49.264;8.596;2023-01-23T14:14:35;3.80;99.90
15535;DHT22;7869;49.264;8.596;2023-01-23T14:17:21;3.90;99.90
15535;DHT22;7869;49.264;8.596;2023-01-23T14:19:55;3.90;99.90
15535;DHT22;7869;49.264;8.596;2023-01-23T14:22:21;3.90;99.90
15535;DHT22;7869;49.264;8.596;2023-01-23T14:24:49;4.00;99.90
15535;DHT22;7869;49.264;8.596;2023-01-23T14:27:28;4.00;99.90
15535;DHT22;7869;49.264;8.596;2023-01-23T14:29:58;4.00;99.90
15535;DHT22;7869;49.264;8.596;2023-01-23T14:32:25;4.10;99.90
15535;DHT22;7869;49.264;8.596;2023-01-23T14:34:52;4.10;99.90
15535;DHT22;7869;49.264;8.596;2023-01-23T14:37:18;4.10;99.90
15535;DHT22;7869;49.264;8.596;2023-01-23T14:39:45;4.10;99.90
15535;DHT22;7869;49.264;8.596;2023-01-23T14:42:29;4.10;99.90
15535;DHT22;7869;49.264;8.596;2023-01-23T14:44:57;4.10;99.90
15535;DHT22;7869;49.264;8.596;2023-01-23T14:47:32;4.10;99.90
15535;DHT22;7869;49.264;8.596;2023-01-23T14:49:58;4.10;99.90
15535;DHT22;7869;49.264;8.596;2023-01-23T14:52:27;4.10;99.90
15535;DHT22;7869;49.264;8.596;2023-01-23T14:54:56;4.20;99.90
15535;DHT22;7869;49.264;8.596;2023-01-23T14:57:23;4.30;99.90
15535;DHT22;7869;49.264;8.596;2023-01-23T14:59:52;4.30;99.90
15535;DHT22;7869;49.264;8.596;2023-01-23T15:05:15;4.00;99.90
15535;DHT22;7869;49.264;8.596;2023-01-23T15:08:01;3.90;99.90
15535;DHT22;7869;49.264;8.596;2023-01-23T15:10:42;3.80;99.90
15535;DHT22;7869;49.264;8.596;2023-01-23T15:13:24;3.70;99.90
15535;DHT22;7869;49.264;8.596;2023-01-23T15:15:58;3.60;99.90
15535;DHT22;7869;49.264;8.596;2023-01-23T15:18:27;3.60;99.90
15535;DHT22;7869;49.264;8.596;2023-01-23T15:20:54;3.60;99.90
15535;DHT22;7869;49.264;8.596;2023-01-23T15:23:27;3.40;99.90
15535;DHT22;7869;49.264;8.596;2023-01-23T15:31:04;3.30;99.90
15535;DHT22;7869;49.264;8.596;2023-01-23T15:33:41;3.30;99.90
15535;DHT22;7869;49.264;8.596;2023-01-23T15:36:22;3.10;99.90
15535;DHT22;7869;49.264;8.596;2023-01-23T15:38:48;3.10;99.90
15535;DHT22;7869;49.264;8.596;2023-01-23T15:41:14;3.20;99.90
15535;DHT22;7869;49.264;8.596;2023-01-23T15:43:40;3.10;99.90
15535;DHT22;7869;49.264;8.596;2023-01-23T15:46:09;3.10;99.90
15535;DHT22;7869;49.264;8.596;2023-01-23T15:48:35;3.00;99.90
15535;DHT22;7869;49.264;8.596;2023-01-23T15:51:01;3.00;99.90
15535;DHT22;7869;49.264;8.596;2023-01-23T15:53:26;2.90;99.90
15535;DHT22;7869;49.264;8.596;2023-01-23T15:55:52;2.70;99.90
15535;DHT22;7869;49.264;8.596;2023-01-23T15:58:17;2.60;99.90
15535;DHT22;7869;49.264;8.596;2023-01-23T16:00:43;2.60;99.90
15535;DHT22;7869;49.264;8.596;2023-01-23T16:03:08;2.50;99.90
15535;DHT22;7869;49.264;8.596;2023-01-23T16:05:36;2.40;99.90
15535;DHT22;7869;49.264;8.596;2023-01-23T16:08:02;2.30;99.90
15535;DHT22;7869;49.264;8.596;2023-01-23T16:10:37;2.30;99.90
15535;DHT22;7869;49.264;8.596;2023-01-23T16:13:03;2.30;99.90
15535;DHT22;7869;49.264;8.596;2023-01-23T16:15:33;2.20;99.90
15535;DHT22;7869;49.264;8.596;2023-01-23T16:18:00;2.20;99.90
15535;DHT22;7869;49.264;8.596;2023-01-23T16:22:55;2.20;99.90
15535;DHT22;7869;49.264;8.596;2023-01-23T16:25:32;2.20;99.90
15535;DHT22;7869;49.264;8.596;2023-01-23T16:27:58;2.20;99.90
15535;DHT22;7869;49.264;8.596;2023-01-23T16:30:26;2.20;99.90
15535;DHT22;7869;49.264;8.596;2023-01-23T16:32:53;2.20;99.90
15535;DHT22;7869;49.264;8.596;2023-01-23T16:35:20;2.20;99.90
15535;DHT22;7869;49.264;8.596;2023-01-23T16:37:48;2.10;99.90
15535;DHT22;7869;49.264;8.596;2023-01-23T16:40:32;2.10;99.90
15535;DHT22;7869;49.264;8.596;2023-01-23T16:42:59;2.10;99.90
15535;DHT22;7869;49.264;8.596;2023-01-23T16:45:28;2.10;99.90
15535;DHT22;7869;49.264;8.596;2023-01-23T16:47:54;2.10;99.90
15535;DHT22;7869;49.264;8.596;2023-01-23T16:50:38;2.10;99.90
15535;DHT22;7869;49.264;8.596;2023-01-23T16:55:53;2.20;99.90
15535;DHT22;7869;49.264;8.596;2023-01-23T16:58:23;2.10;99.90
15535;DHT22;7869;49.264;8.596;2023-01-23T17:00:58;2.10;99.90
15535;DHT22;7869;49.264;8.596;2023-01-23T17:03:27;2.20;99.90
15535;DHT22;7869;49.264;8.596;2023-01-23T17:05:54;2.10;99.90
15535;DHT22;7869;49.264;8.596;2023-01-23T17:08:21;2.10;99.90
15535;DHT22;7869;49.264;8.596;2023-01-23T17:10:51;2.00;99.90
15535;DHT22;7869;49.264;8.596;2023-01-23T17:13:20;2.00;99.90
15535;DHT22;7869;49.264;8.596;2023-01-23T17:15:50;2.00;99.90
15535;DHT22;7869;49.264;8.596;2023-01-23T17:18:22;1.90;99.90
15535;DHT22;7869;49.264;8.596;2023-01-23T17:20:48;1.90;99.90
15535;DHT22;7869;49.264;8.596;2023-01-23T17:23:14;1.90;99.90
15535;DHT22;7869;49.264;8.596;2023-01-23T17:25:39;1.80;99.90
15535;DHT22;7869;49.264;8.596;2023-01-23T17:28:10;1.80;99.90
15535;DHT22;7869;49.264;8.596;2023-01-23T17:30:36;1.70;99.90
15535;DHT22;7869;49.264;8.596;2023-01-23T17:33:02;1.70;99.90
15535;DHT22;7869;49.264;8.596;2023-01-23T17:35:33;1.70;99.90
15535;DHT22;7869;49.264;8.596;2023-01-23T17:37:59;1.70;99.90
15535;DHT22;7869;49.264;8.596;2023-01-23T17:40:25;1.70;99.90
15535;DHT22;7869;49.264;8.596;2023-01-23T17:42:52;1.60;99.90
15535;DHT22;7869;49.264;8.596;2023-01-23T17:45:20;1.60;99.90
15535;DHT22;7869;49.264;8.596;2023-01-23T17:47:48;1.50;99.90
15535;DHT22;7869;49.264;8.596;2023-01-23T17:50:19;1.50;99.90
15535;DHT22;7869;49.264;8.596;2023-01-23T17:52:46;1.40;99.90
15535;DHT22;7869;49.264;8.596;2023-01-23T17:55:13;1.30;99.90
15535;DHT22;7869;49.264;8.596;2023-01-23T17:57:39;1.20;99.90
15535;DHT22;7869;49.264;8.596;2023-01-23T18:00:05;1.10;99.90
15535;DHT22;7869;49.264;8.596;2023-01-23T18:02:31;1.00;99.90
15535;DHT22;7869;49.264;8.596;2023-01-23T18:04:57;0.80;99.90
15535;DHT22;7869;49.264;8.596;2023-01-23T18:07:24;0.70;99.90